createdAt,value
2022-10-11T00:02:20.351Z,11.85
2022-10-11T00:04:50.634Z,9.05
2022-10-11T00:07:19.213Z,10.00
2022-10-11T00:09:48.007Z,8.98
2022-10-11T00:12:16.341Z,11.55
2022-10-11T00:14:44.613Z,10.25
2022-10-11T00:17:14.706Z,9.73
2022-10-11T00:19:42.954Z,12.60
2022-10-11T00:22:11.244Z,11.95
2022-10-11T00:24:39.582Z,9.65
2022-10-11T00:27:07.874Z,9.05
2022-10-11T00:29:36.554Z,13.50
2022-10-11T00:32:05.190Z,10.45
2022-10-11T00:34:34.877Z,11.52
2022-10-11T00:37:03.388Z,10.50
2022-10-11T00:39:31.714Z,11.02
2022-10-11T00:41:59.994Z,12.43
2022-10-11T00:44:30.829Z,9.20
2022-10-11T00:47:01.492Z,9.27
2022-10-11T00:49:40.543Z,7.28
2022-10-11T00:52:16.558Z,12.48
2022-10-11T00:54:46.775Z,10.90
2022-10-11T00:57:21.009Z,9.18
2022-10-11T00:59:52.093Z,10.27
2022-10-11T01:02:21.810Z,10.35
2022-10-11T01:05:05.683Z,9.20
2022-10-11T01:07:40.948Z,11.57
2022-10-11T01:10:10.536Z,9.20
2022-10-11T01:12:48.848Z,11.77
2022-10-11T01:15:22.852Z,9.00
2022-10-11T01:18:00.052Z,8.43
2022-10-11T01:20:53.900Z,9.13
2022-10-11T01:23:43.322Z,13.68
2022-10-11T01:26:49.080Z,12.27
2022-10-11T01:29:26.349Z,9.73
2022-10-11T01:32:02.857Z,9.70
2022-10-11T01:34:38.399Z,9.88
2022-10-11T01:37:12.083Z,11.07
2022-10-11T01:39:45.021Z,10.77
2022-10-11T01:42:14.578Z,8.60
2022-10-11T01:44:47.124Z,12.40
2022-10-11T01:47:20.591Z,12.20
2022-10-11T01:49:54.867Z,8.60
2022-10-11T01:52:23.734Z,11.55
2022-10-11T01:55:10.334Z,11.68
2022-10-11T01:58:11.097Z,8.63
2022-10-11T02:00:50.665Z,10.38
2022-10-11T02:03:32.153Z,11.93
2022-10-11T02:06:07.455Z,9.75
2022-10-11T02:08:44.804Z,10.70
2022-10-11T02:11:19.965Z,10.63
2022-10-11T02:13:55.432Z,12.18
2022-10-11T02:16:28.608Z,11.05
2022-10-11T02:19:00.565Z,12.43
2022-10-11T02:21:31.355Z,13.93
2022-10-11T02:24:04.620Z,11.55
2022-10-11T02:26:35.234Z,10.05
2022-10-11T02:29:07.723Z,11.88
2022-10-11T02:31:37.689Z,12.07
2022-10-11T02:34:15.746Z,10.45
2022-10-11T02:36:50.960Z,13.20
2022-10-11T02:39:27.160Z,9.13
2022-10-11T02:42:01.144Z,16.40
2022-10-11T02:44:34.497Z,9.23
2022-10-11T02:47:04.612Z,9.65
2022-10-11T02:49:35.921Z,11.15
2022-10-11T02:52:06.897Z,8.93
2022-10-11T02:54:35.337Z,12.10
2022-10-11T02:57:04.417Z,9.13
2022-10-11T02:59:32.779Z,13.18
2022-10-11T03:02:01.145Z,11.73
2022-10-11T03:04:29.621Z,10.73
2022-10-11T03:06:59.493Z,11.68
2022-10-11T03:09:28.328Z,9.63
2022-10-11T03:11:57.339Z,8.45
2022-10-11T03:14:26.443Z,9.70
2022-10-11T03:16:54.828Z,10.88
2022-10-11T03:19:23.130Z,9.40
2022-10-11T03:21:51.470Z,8.82
2022-10-11T03:24:21.328Z,12.32
2022-10-11T03:26:49.601Z,8.90
2022-10-11T03:29:18.574Z,10.95
2022-10-11T03:31:47.164Z,11.60
2022-10-11T03:34:15.610Z,9.55
2022-10-11T03:36:43.909Z,11.93
2022-10-11T03:39:12.382Z,12.20
2022-10-11T03:41:42.283Z,12.70
2022-10-11T03:44:10.839Z,17.27
2022-10-11T03:46:40.179Z,13.48
2022-10-11T03:49:09.354Z,30.50
2022-10-11T03:51:37.658Z,36.72
2022-10-11T03:54:06.011Z,42.90
2022-10-11T03:56:34.633Z,19.15
2022-10-11T03:59:04.366Z,38.83
2022-10-11T04:01:37.603Z,30.65
2022-10-11T04:04:06.251Z,23.90
2022-10-11T04:06:34.945Z,19.50
2022-10-11T04:09:03.402Z,20.95
2022-10-11T04:11:32.021Z,18.13
2022-10-11T04:14:00.293Z,16.65
2022-10-11T04:16:30.049Z,14.32
2022-10-11T04:18:58.505Z,13.75
2022-10-11T04:21:28.964Z,14.45
2022-10-11T04:23:58.461Z,12.65
2022-10-11T04:26:26.778Z,15.90
2022-10-11T04:28:55.157Z,12.43
2022-10-11T04:31:23.952Z,15.88
2022-10-11T04:33:53.654Z,16.73
2022-10-11T04:36:21.901Z,13.00
2022-10-11T04:38:50.361Z,13.20
2022-10-11T04:41:18.706Z,11.52
2022-10-11T04:43:47.087Z,12.15
2022-10-11T04:46:15.469Z,11.88
2022-10-11T04:48:44.148Z,11.82
2022-10-11T04:51:14.262Z,15.30
2022-10-11T04:53:42.563Z,14.82
2022-10-11T04:56:11.954Z,15.65
2022-10-11T04:58:41.914Z,18.30
2022-10-11T05:01:11.204Z,14.55
2022-10-11T05:03:39.825Z,20.40
2022-10-11T05:06:08.743Z,15.75
2022-10-11T05:08:39.202Z,17.88
2022-10-11T05:11:11.755Z,14.98
2022-10-11T05:13:40.827Z,16.38
2022-10-11T05:16:11.093Z,15.98
2022-10-11T05:18:40.986Z,21.55
2022-10-11T05:21:15.493Z,12.38
2022-10-11T05:23:45.654Z,14.48
2022-10-11T05:26:14.253Z,11.40
2022-10-11T05:28:42.809Z,12.77
2022-10-11T05:31:11.363Z,13.63
2022-10-11T05:33:40.071Z,16.58
2022-10-11T05:36:09.871Z,8.00
2022-10-11T05:38:39.063Z,11.95
2022-10-11T05:41:10.154Z,12.85
2022-10-11T05:43:38.546Z,10.75
2022-10-11T05:46:10.524Z,9.48
2022-10-11T05:48:39.294Z,10.20
2022-10-11T05:51:10.486Z,10.30
2022-10-11T05:53:39.452Z,11.40
2022-10-11T05:56:19.121Z,9.10
2022-10-11T05:58:47.426Z,11.05
2022-10-11T06:01:23.537Z,9.40
2022-10-11T06:03:52.089Z,15.77
2022-10-11T06:06:21.529Z,10.70
2022-10-11T06:08:50.403Z,8.32
2022-10-11T06:11:22.658Z,14.05
2022-10-11T06:13:51.085Z,11.02
2022-10-11T06:16:19.516Z,11.52
2022-10-11T06:18:47.843Z,9.90
2022-10-11T06:21:17.134Z,11.07
2022-10-11T06:23:45.643Z,14.73
2022-10-11T06:26:14.121Z,10.10
2022-10-11T06:28:43.912Z,11.88
2022-10-11T06:31:14.076Z,12.50
2022-10-11T06:33:42.432Z,13.48
2022-10-11T06:36:14.246Z,12.25
2022-10-11T06:38:45.154Z,13.80
2022-10-11T06:41:17.903Z,19.08
2022-10-11T06:43:49.582Z,10.13
2022-10-11T06:46:19.014Z,8.65
2022-10-11T06:48:48.685Z,9.70
2022-10-11T06:51:21.070Z,9.85
2022-10-11T06:53:51.546Z,8.07
2022-10-11T06:56:20.715Z,6.82
2022-10-11T06:58:51.228Z,7.15
2022-10-11T07:01:21.530Z,7.45
2022-10-11T07:03:50.283Z,7.93
2022-10-11T07:06:20.757Z,4.82
2022-10-11T07:08:49.895Z,7.15
2022-10-11T07:11:20.643Z,9.07
2022-10-11T07:13:56.851Z,8.90
2022-10-11T07:16:25.984Z,4.28
2022-10-11T07:19:00.279Z,4.93
2022-10-11T07:21:30.291Z,6.28
2022-10-11T07:23:58.701Z,3.85
2022-10-11T07:26:27.307Z,4.85
2022-10-11T07:28:57.585Z,5.55
2022-10-11T07:31:27.054Z,3.70
2022-10-11T07:33:55.656Z,3.50
2022-10-11T07:36:24.618Z,4.97
2022-10-11T07:38:53.011Z,5.10
2022-10-11T07:41:21.885Z,3.50
2022-10-11T07:43:51.291Z,4.35
2022-10-11T07:46:21.000Z,5.38
2022-10-11T07:48:50.263Z,5.90
2022-10-11T07:51:20.450Z,4.57
2022-10-11T07:53:50.418Z,27.80
2022-10-11T07:56:22.559Z,4.03
2022-10-11T07:58:53.120Z,6.00
2022-10-11T08:01:23.044Z,4.30
2022-10-11T08:03:54.417Z,6.50
2022-10-11T08:06:26.287Z,5.65
2022-10-11T08:08:55.031Z,5.85
2022-10-11T08:11:25.791Z,7.07
2022-10-11T08:13:56.214Z,6.57
2022-10-11T08:16:26.383Z,6.30
2022-10-11T08:19:08.484Z,8.80
2022-10-11T08:21:40.070Z,5.22
2022-10-11T08:24:09.796Z,5.78
2022-10-11T08:27:03.706Z,5.47
2022-10-11T08:29:33.993Z,6.60
2022-10-11T08:32:06.690Z,8.77
2022-10-11T08:34:35.064Z,6.70
2022-10-11T08:37:06.530Z,5.95
2022-10-11T08:39:34.903Z,5.45
2022-10-11T08:42:20.870Z,5.80
2022-10-11T08:45:10.199Z,8.25
2022-10-11T08:47:48.572Z,6.85
2022-10-11T08:50:20.660Z,6.28
2022-10-11T08:52:54.218Z,4.70
2022-10-11T08:57:58.250Z,4.47
2022-10-11T09:00:32.195Z,6.50
2022-10-11T09:03:12.182Z,4.97
2022-10-11T09:06:09.238Z,19.92
2022-10-11T09:08:49.679Z,4.93
2022-10-11T09:11:26.384Z,7.43
2022-10-11T09:14:17.529Z,4.25
2022-10-11T09:17:02.748Z,3.83
2022-10-11T09:19:50.203Z,4.43
2022-10-11T09:22:30.765Z,4.63
2022-10-11T09:25:14.411Z,3.53
2022-10-11T09:28:02.509Z,6.18
2022-10-11T09:30:33.356Z,4.18
2022-10-11T09:33:12.411Z,3.13
2022-10-11T09:35:49.848Z,5.38
2022-10-11T09:38:37.271Z,3.72
2022-10-11T09:41:14.559Z,6.15
2022-10-11T09:43:48.554Z,4.50
2022-10-11T09:46:24.128Z,4.35
2022-10-11T09:48:54.796Z,5.25
2022-10-11T09:51:28.516Z,4.07
2022-10-11T09:53:59.226Z,5.70
2022-10-11T09:56:29.654Z,4.03
2022-10-11T09:59:20.932Z,4.53
2022-10-11T10:01:49.404Z,3.75
2022-10-11T10:04:18.632Z,3.28
2022-10-11T10:06:48.318Z,2.92
2022-10-11T10:09:23.662Z,4.53
2022-10-11T10:11:51.983Z,3.17
2022-10-11T10:14:25.331Z,7.30
2022-10-11T10:17:05.934Z,4.43
2022-10-11T10:19:44.962Z,3.45
2022-10-11T10:22:20.287Z,4.90
2022-10-11T10:24:52.065Z,4.63
2022-10-11T10:27:23.057Z,5.28
2022-10-11T10:30:14.411Z,4.13
2022-10-11T10:32:52.704Z,5.45
2022-10-11T10:35:34.164Z,3.22
2022-10-11T10:38:26.607Z,3.80
2022-10-11T10:40:58.289Z,2.72
2022-10-11T10:43:30.272Z,4.00
2022-10-11T10:46:13.492Z,3.70
2022-10-11T10:51:49.593Z,3.00
2022-10-11T10:54:34.358Z,3.15
2022-10-11T10:57:05.654Z,6.57
2022-10-11T10:59:57.641Z,3.08
2022-10-11T11:02:46.655Z,4.40
2022-10-11T11:05:24.739Z,3.35
2022-10-11T11:07:57.050Z,5.93
2022-10-11T11:10:31.794Z,3.40
2022-10-11T11:13:13.696Z,3.97
2022-10-11T11:15:47.691Z,5.03
2022-10-11T11:18:28.955Z,5.97
2022-10-11T11:21:18.511Z,3.90
2022-10-11T11:23:56.370Z,6.20
2022-10-11T11:26:35.230Z,4.18
2022-10-11T11:29:18.658Z,2.95
2022-10-11T11:32:04.238Z,4.70
2022-10-11T11:34:38.875Z,5.10
2022-10-11T11:37:17.591Z,7.13
2022-10-11T11:39:49.567Z,5.68
2022-10-11T11:42:23.685Z,4.57
2022-10-11T11:44:53.170Z,4.35
2022-10-11T11:47:26.326Z,4.05
2022-10-11T11:50:00.041Z,4.35
2022-10-11T11:52:32.078Z,4.25
2022-10-11T11:55:10.600Z,6.07
2022-10-11T11:57:55.565Z,4.43
2022-10-11T12:00:25.550Z,7.22
2022-10-11T12:02:56.509Z,8.98
2022-10-11T12:05:27.650Z,4.75
2022-10-11T12:07:59.328Z,5.18
2022-10-11T12:10:33.021Z,6.38
2022-10-11T12:13:31.948Z,4.07
2022-10-11T12:16:12.628Z,3.70
2022-10-11T12:18:53.409Z,4.20
2022-10-11T12:21:27.573Z,3.72
2022-10-11T12:23:57.448Z,3.00
2022-10-11T12:26:40.387Z,3.38
2022-10-11T12:29:44.912Z,4.53
2022-10-11T12:32:52.796Z,4.55
2022-10-11T12:35:48.773Z,4.18
2022-10-11T12:38:22.703Z,4.15
2022-10-11T12:40:52.218Z,7.50
2022-10-11T12:43:37.925Z,4.32
2022-10-11T12:46:59.405Z,4.93
2022-10-11T12:49:37.424Z,4.25
2022-10-11T12:52:25.284Z,4.78
2022-10-11T12:55:14.642Z,7.05
2022-10-11T12:58:18.454Z,6.20
2022-10-11T13:01:18.761Z,4.18
2022-10-11T13:03:53.554Z,5.53
2022-10-11T13:06:25.376Z,5.70
2022-10-11T13:08:57.741Z,4.55
2022-10-11T13:11:33.250Z,4.50
2022-10-11T13:14:09.119Z,7.30
2022-10-11T13:16:50.896Z,3.80
2022-10-11T13:19:24.208Z,4.05
2022-10-11T13:24:24.329Z,5.10
2022-10-11T13:26:56.328Z,6.95
2022-10-11T13:29:31.844Z,4.05
2022-10-11T13:32:00.763Z,18.00
2022-10-11T13:34:40.835Z,32.03
2022-10-11T13:37:16.912Z,4.25
2022-10-11T13:39:46.930Z,9.45
2022-10-11T13:42:17.679Z,4.07
2022-10-11T13:44:47.635Z,3.85
2022-10-11T13:47:18.107Z,6.00
2022-10-11T13:49:53.516Z,5.40
2022-10-11T13:52:24.971Z,5.68
2022-10-11T13:54:59.281Z,4.72
2022-10-11T13:57:37.899Z,4.72
2022-10-11T14:00:12.027Z,4.85
2022-10-11T14:02:41.097Z,7.90
2022-10-11T14:05:24.329Z,4.93
2022-10-11T14:07:52.813Z,4.78
2022-10-11T14:10:23.510Z,5.47
2022-10-11T14:13:01.130Z,7.35
2022-10-11T14:15:32.185Z,4.03
2022-10-11T14:18:02.038Z,6.43
2022-10-11T14:20:39.513Z,5.43
2022-10-11T14:23:08.990Z,3.80
2022-10-11T14:25:37.795Z,5.00
2022-10-11T14:28:11.993Z,4.95
2022-10-11T14:30:42.695Z,4.43
2022-10-11T14:33:12.698Z,5.70
2022-10-11T14:35:43.345Z,4.57
2022-10-11T14:38:12.975Z,6.57
2022-10-11T14:40:41.691Z,5.60
2022-10-11T14:43:10.059Z,6.43
2022-10-11T14:45:38.669Z,4.80
2022-10-11T14:48:07.285Z,4.60
2022-10-11T14:50:41.630Z,4.78
2022-10-11T14:53:12.316Z,6.55
2022-10-11T14:55:42.152Z,7.47
2022-10-11T14:58:14.771Z,5.88
2022-10-11T15:00:43.493Z,4.38
2022-10-11T15:03:11.993Z,6.43
2022-10-11T15:05:40.493Z,6.80
2022-10-11T15:08:08.803Z,8.75
2022-10-11T15:10:40.991Z,6.82
2022-10-11T15:13:10.164Z,8.40
2022-10-11T15:15:42.222Z,6.47
2022-10-11T15:18:16.791Z,7.63
2022-10-11T15:20:46.886Z,12.13
2022-10-11T15:23:15.252Z,9.57
2022-10-11T15:25:45.106Z,10.38
2022-10-11T15:28:28.260Z,9.00
2022-10-11T15:30:57.289Z,6.20
2022-10-11T15:33:26.480Z,13.38
2022-10-11T15:35:54.837Z,10.43
2022-10-11T15:38:26.059Z,10.10
2022-10-11T15:40:56.258Z,9.70
2022-10-11T15:43:25.291Z,11.63
2022-10-11T15:45:53.796Z,10.90
2022-10-11T15:48:23.895Z,10.32
2022-10-11T15:50:52.527Z,9.82
2022-10-11T15:53:23.054Z,8.88
2022-10-11T15:55:53.759Z,7.07
2022-10-11T15:58:25.465Z,9.68
2022-10-11T16:00:57.074Z,7.55
2022-10-11T16:03:27.626Z,12.88
2022-10-11T16:05:58.950Z,10.30
2022-10-11T16:08:30.841Z,8.25
2022-10-11T16:11:00.778Z,11.05
2022-10-11T16:13:30.658Z,43.28
2022-10-11T16:15:58.951Z,13.00
2022-10-11T16:18:30.141Z,9.35
2022-10-11T16:21:03.217Z,9.05
2022-10-11T16:23:32.132Z,9.48
2022-10-11T16:26:01.851Z,12.68
2022-10-11T16:28:31.985Z,10.52
2022-10-11T16:31:00.361Z,8.40
2022-10-11T16:33:28.920Z,9.77
2022-10-11T16:36:17.714Z,11.68
2022-10-11T16:38:45.981Z,11.27
2022-10-11T16:41:14.298Z,10.82
2022-10-11T16:43:44.002Z,11.50
2022-10-11T16:46:13.614Z,10.68
2022-10-11T16:48:41.897Z,11.05
2022-10-11T16:51:10.347Z,12.20
2022-10-11T16:53:39.151Z,10.18
2022-10-11T16:56:08.543Z,12.75
2022-10-11T16:58:37.718Z,10.82
2022-10-11T17:01:12.368Z,8.63
2022-10-11T17:03:40.689Z,11.43
2022-10-11T17:06:09.801Z,9.20
2022-10-11T17:08:38.305Z,12.57
2022-10-11T17:11:07.467Z,12.60
2022-10-11T17:13:36.065Z,13.88
2022-10-11T17:16:04.861Z,9.00
2022-10-11T17:18:35.095Z,9.25
2022-10-11T17:21:04.352Z,12.77
2022-10-11T17:23:37.843Z,11.32
2022-10-11T17:26:11.152Z,15.45
2022-10-11T17:28:40.138Z,11.45
2022-10-11T17:31:10.259Z,12.38
2022-10-11T17:33:42.575Z,12.00
2022-10-11T17:36:17.600Z,10.90
2022-10-11T17:38:46.079Z,12.40
2022-10-11T17:41:14.609Z,11.05
2022-10-11T17:43:42.989Z,12.90
2022-10-11T17:46:13.048Z,11.68
2022-10-11T17:48:44.664Z,11.60
2022-10-11T17:51:15.187Z,16.48
2022-10-11T17:53:44.174Z,11.70
2022-10-11T17:56:14.540Z,11.82
2022-10-11T17:58:43.536Z,20.90
2022-10-11T18:01:15.339Z,12.18
2022-10-11T18:03:46.172Z,14.55
2022-10-11T18:06:15.036Z,11.68
2022-10-11T18:08:43.341Z,16.88
2022-10-11T18:11:13.717Z,14.40
2022-10-11T18:13:46.257Z,15.68
2022-10-11T18:16:16.172Z,13.88
2022-10-11T18:18:46.058Z,13.05
2022-10-11T18:21:14.706Z,14.50
2022-10-11T18:23:43.154Z,15.55
2022-10-11T18:26:13.448Z,11.80
2022-10-11T18:28:42.541Z,14.95
2022-10-11T18:31:14.172Z,14.93
2022-10-11T18:33:45.560Z,14.98
2022-10-11T18:36:17.095Z,24.08
2022-10-11T18:38:49.107Z,18.50
2022-10-11T18:41:18.863Z,12.35
2022-10-11T18:43:51.258Z,15.05
2022-10-11T18:46:20.627Z,17.50
2022-10-11T18:48:51.385Z,16.00
2022-10-11T18:51:23.529Z,13.27
2022-10-11T18:53:52.504Z,16.25
2022-10-11T18:56:22.471Z,17.27
2022-10-11T18:58:51.960Z,17.55
2022-10-11T19:01:22.535Z,18.30
2022-10-11T19:03:53.631Z,14.15
2022-10-11T19:06:26.393Z,18.48
2022-10-11T19:08:56.577Z,17.50
2022-10-11T19:11:25.528Z,19.55
2022-10-11T19:13:57.998Z,17.73
2022-10-11T19:16:27.930Z,21.67
2022-10-11T19:18:56.455Z,20.75
2022-10-11T19:21:28.591Z,14.68
2022-10-11T19:23:57.834Z,17.63
2022-10-11T19:26:29.133Z,18.42
2022-10-11T19:28:59.072Z,17.75
2022-10-11T19:31:27.958Z,17.27
2022-10-11T19:34:00.276Z,17.90
2022-10-11T19:36:35.511Z,16.88
2022-10-11T19:39:07.461Z,17.65
2022-10-11T19:41:35.825Z,25.45
2022-10-11T19:44:04.143Z,19.60
2022-10-11T19:46:50.312Z,18.95
2022-10-11T19:49:22.674Z,21.88
2022-10-11T19:51:53.299Z,17.23
2022-10-11T19:54:21.831Z,18.40
2022-10-11T19:56:50.077Z,22.58
2022-10-11T19:59:18.988Z,23.27
2022-10-11T20:01:52.250Z,21.42
2022-10-11T20:07:11.537Z,32.28
2022-10-11T20:09:39.953Z,24.60
2022-10-11T20:12:08.710Z,18.75
2022-10-11T20:14:37.782Z,19.23
2022-10-11T20:17:06.114Z,18.48
2022-10-11T20:19:34.432Z,21.38
2022-10-11T20:22:03.793Z,19.77
2022-10-11T20:24:34.679Z,21.25
2022-10-11T20:27:05.332Z,18.98
2022-10-11T20:29:34.181Z,23.42
2022-10-11T20:32:03.807Z,27.45
2022-10-11T20:34:32.112Z,19.25
2022-10-11T20:37:01.695Z,27.20
2022-10-11T20:39:30.214Z,24.58
2022-10-11T20:42:00.209Z,26.75
2022-10-11T20:44:28.492Z,28.02
2022-10-11T20:47:00.266Z,29.35
2022-10-11T20:49:31.649Z,30.13
2022-10-11T20:51:59.933Z,29.40
2022-10-11T20:54:29.894Z,23.40
2022-10-11T20:57:00.337Z,26.67
2022-10-11T20:59:29.037Z,24.58
2022-10-11T21:01:57.266Z,23.48
2022-10-11T21:04:25.587Z,24.40
2022-10-11T21:06:53.939Z,26.98
2022-10-11T21:09:22.460Z,22.55
2022-10-11T21:11:50.785Z,24.58
2022-10-11T21:14:20.487Z,24.58
2022-10-11T21:16:48.833Z,21.85
2022-10-11T21:19:17.207Z,24.50
2022-10-11T21:21:51.111Z,27.88
2022-10-11T21:24:22.689Z,24.75
2022-10-11T21:26:51.050Z,27.30
2022-10-11T21:29:20.822Z,22.65
2022-10-11T21:31:49.205Z,25.92
2022-10-11T21:34:17.726Z,27.40
2022-10-11T21:36:45.963Z,34.17
2022-10-11T21:39:14.369Z,37.17
2022-10-11T21:41:43.147Z,36.88
2022-10-11T21:44:11.479Z,29.25
2022-10-11T21:47:05.346Z,27.13
2022-10-11T21:49:29.713Z,29.67
2022-10-11T21:51:58.077Z,27.33
2022-10-11T21:54:26.513Z,38.25
2022-10-11T21:56:54.882Z,29.35
2022-10-11T21:59:23.300Z,28.65
2022-10-11T22:01:55.053Z,32.97
2022-10-11T22:04:26.575Z,29.65
2022-10-11T22:06:54.914Z,32.83
2022-10-11T22:09:23.360Z,37.95
2022-10-11T22:11:51.969Z,29.65
2022-10-11T22:14:20.349Z,38.95
2022-10-11T22:16:48.732Z,36.53
2022-10-11T22:19:18.553Z,38.65
2022-10-11T22:21:47.045Z,41.75
2022-10-11T22:24:15.387Z,35.60
2022-10-11T22:26:43.987Z,34.30
2022-10-11T22:29:12.362Z,34.78
2022-10-11T22:31:40.746Z,39.58
2022-10-11T22:34:09.698Z,36.92
2022-10-11T22:36:39.608Z,40.60
2022-10-11T22:39:10.110Z,35.05
2022-10-11T22:41:39.188Z,35.78
2022-10-11T22:44:07.824Z,43.10
2022-10-11T22:46:36.183Z,41.72
2022-10-11T22:49:04.948Z,54.33
2022-10-11T22:51:33.344Z,62.90
2022-10-11T22:54:03.112Z,59.85
2022-10-11T22:56:31.875Z,65.65
2022-10-11T22:59:00.691Z,76.53
2022-10-11T23:01:29.412Z,87.60
2022-10-11T23:03:58.377Z,116.93
2022-10-11T23:06:27.016Z,211.10
2022-10-11T23:08:55.571Z,219.57
2022-10-11T23:11:25.328Z,129.98
2022-10-11T23:13:53.643Z,117.55
2022-10-11T23:16:21.982Z,90.68
2022-10-11T23:18:53.609Z,90.35
2022-10-11T23:21:22.243Z,96.57
2022-10-11T23:23:53.450Z,91.75
2022-10-11T23:26:22.493Z,85.75
2022-10-11T23:28:55.034Z,64.95
2022-10-11T23:31:23.489Z,76.50
2022-10-11T23:33:51.902Z,67.32
2022-10-11T23:36:21.470Z,67.05
2022-10-11T23:38:53.308Z,59.25
2022-10-11T23:41:22.165Z,59.30
2022-10-11T23:43:51.933Z,60.33
2022-10-11T23:46:20.587Z,54.45
2022-10-11T23:48:49.035Z,51.67
2022-10-11T23:51:17.669Z,56.00
2022-10-11T23:53:46.066Z,56.25
2022-10-11T23:56:14.391Z,50.05
2022-10-11T23:58:42.732Z,53.80
